createdAt,value
2022-12-12T00:01:40.569Z,0.83
2022-12-12T00:04:07.242Z,0.83
2022-12-12T00:06:33.853Z,0.83
2022-12-12T00:09:00.528Z,0.84
2022-12-12T00:11:28.229Z,0.86
2022-12-12T00:13:55.127Z,0.85
2022-12-12T00:16:22.598Z,0.84
2022-12-12T00:18:49.346Z,0.84
2022-12-12T00:21:22.258Z,0.85
2022-12-12T00:23:49.136Z,0.87
2022-12-12T00:26:27.913Z,0.88
2022-12-12T00:28:55.477Z,0.89
2022-12-12T00:31:22.172Z,0.88
2022-12-12T00:33:50.373Z,0.88
2022-12-12T00:36:22.893Z,0.90
2022-12-12T00:38:50.504Z,0.92
2022-12-12T00:41:17.332Z,0.93
2022-12-12T00:43:43.921Z,0.91
2022-12-12T00:46:14.892Z,0.90
2022-12-12T00:48:41.605Z,0.89
2022-12-12T00:51:10.262Z,0.88
2022-12-12T00:53:38.354Z,0.86
2022-12-12T00:56:05.882Z,0.87
2022-12-12T00:58:32.783Z,0.87
2022-12-12T01:01:06.485Z,0.85
2022-12-12T01:03:34.686Z,0.82
2022-12-12T01:06:01.238Z,0.80
2022-12-12T01:08:28.855Z,0.78
2022-12-12T01:10:56.156Z,0.81
2022-12-12T01:13:23.198Z,0.81
2022-12-12T01:15:50.369Z,0.81
2022-12-12T01:18:17.563Z,0.82
2022-12-12T01:20:44.548Z,0.79
2022-12-12T01:23:11.568Z,0.77
2022-12-12T01:25:38.329Z,0.75
2022-12-12T01:28:05.375Z,0.73
2022-12-12T01:30:32.475Z,0.74
2022-12-12T01:32:59.195Z,0.72
2022-12-12T01:35:26.328Z,0.72
2022-12-12T01:37:54.232Z,0.73
2022-12-12T01:40:24.903Z,0.73
2022-12-12T01:42:51.866Z,0.71
2022-12-12T01:45:55.732Z,0.66
2022-12-12T01:48:25.823Z,0.62
2022-12-12T01:50:53.173Z,0.60
2022-12-12T01:53:20.594Z,0.54
2022-12-12T01:55:49.477Z,0.50
2022-12-12T01:58:17.078Z,0.47
2022-12-12T02:00:44.207Z,0.46
2022-12-12T02:03:11.007Z,0.45
2022-12-12T02:05:43.419Z,0.44
2022-12-12T02:08:12.965Z,0.50
2022-12-12T02:10:39.884Z,0.54
2022-12-12T02:13:11.652Z,0.57
2022-12-12T02:15:44.620Z,0.59
2022-12-12T02:18:24.486Z,0.65
2022-12-12T02:21:05.137Z,0.68
2022-12-12T02:23:34.547Z,0.73
2022-12-12T02:26:35.172Z,0.73
2022-12-12T02:29:20.630Z,0.73
2022-12-12T02:31:55.295Z,0.72
2022-12-12T02:34:58.877Z,0.69
2022-12-12T02:37:25.403Z,0.71
2022-12-12T02:39:51.873Z,0.74
2022-12-12T02:42:27.060Z,0.76
2022-12-12T02:45:32.484Z,0.74
2022-12-12T02:48:06.044Z,0.77
2022-12-12T02:50:34.152Z,0.80
2022-12-12T02:53:00.921Z,0.78
2022-12-12T02:55:27.588Z,0.80
2022-12-12T02:57:55.379Z,0.78
2022-12-12T03:00:22.216Z,0.80
2022-12-12T03:03:16.113Z,0.79
2022-12-12T03:06:11.387Z,0.80
2022-12-12T03:08:56.429Z,0.80
2022-12-12T03:11:25.961Z,0.81
2022-12-12T03:13:52.445Z,0.82
2022-12-12T03:16:30.224Z,0.81
2022-12-12T03:19:02.794Z,0.82
2022-12-12T03:21:35.572Z,0.83
2022-12-12T03:24:22.700Z,0.80
2022-12-12T03:27:01.196Z,0.82
2022-12-12T03:29:36.162Z,0.82
2022-12-12T03:32:14.456Z,0.79
2022-12-12T03:34:49.790Z,0.75
2022-12-12T03:37:47.132Z,0.73
2022-12-12T03:40:19.625Z,0.79
2022-12-12T03:42:53.258Z,0.81
2022-12-12T03:45:50.944Z,0.81
2022-12-12T03:48:33.517Z,0.83
2022-12-12T03:51:18.846Z,0.86
2022-12-12T03:53:55.281Z,0.89
2022-12-12T03:56:31.800Z,0.88
2022-12-12T03:59:13.097Z,0.89
2022-12-12T04:02:08.707Z,0.90
2022-12-12T04:04:48.462Z,0.93
2022-12-12T04:07:40.257Z,0.94
2022-12-12T04:10:26.294Z,0.95
2022-12-12T04:13:11.559Z,0.96
2022-12-12T04:15:38.120Z,0.95
2022-12-12T04:18:16.973Z,0.97
2022-12-12T04:21:34.607Z,0.96
2022-12-12T04:24:11.957Z,0.97
2022-12-12T04:26:49.580Z,0.98
2022-12-12T04:29:19.097Z,1.01
2022-12-12T04:32:03.664Z,1.03
2022-12-12T04:34:43.888Z,1.03
2022-12-12T04:37:15.340Z,1.04
2022-12-12T04:39:44.537Z,1.04
2022-12-12T04:42:15.516Z,1.04
2022-12-12T04:44:45.012Z,1.02
2022-12-12T04:47:14.211Z,1.03
2022-12-12T04:49:43.578Z,1.02
2022-12-12T04:52:13.529Z,1.01
2022-12-12T04:54:57.898Z,1.00
2022-12-12T04:57:30.204Z,0.98
2022-12-12T04:59:57.364Z,0.97
2022-12-12T05:02:50.500Z,0.95
2022-12-12T05:05:54.898Z,0.92
2022-12-12T05:08:27.066Z,0.95
2022-12-12T05:11:00.404Z,0.95
2022-12-12T05:13:36.965Z,0.96
2022-12-12T05:16:32.733Z,0.94
2022-12-12T05:19:00.056Z,0.97
2022-12-12T05:21:26.909Z,0.99
2022-12-12T05:23:53.855Z,0.97
2022-12-12T05:26:24.696Z,0.95
2022-12-12T05:28:51.502Z,0.97
2022-12-12T05:31:18.080Z,0.97
2022-12-12T05:33:45.274Z,0.99
2022-12-12T05:36:12.453Z,1.00
2022-12-12T05:38:39.175Z,1.00
2022-12-12T05:41:06.208Z,1.01
2022-12-12T05:43:33.251Z,1.00
2022-12-12T05:46:00.110Z,0.96
2022-12-12T05:48:26.857Z,0.94
2022-12-12T05:50:53.795Z,0.94
2022-12-12T05:53:20.773Z,0.91
2022-12-12T05:55:51.373Z,0.91
2022-12-12T05:58:19.371Z,1.44
2022-12-12T06:00:49.791Z,2.69
2022-12-12T06:03:17.208Z,3.73
2022-12-12T06:05:44.017Z,4.10
2022-12-12T06:08:10.731Z,3.80
2022-12-12T06:10:37.696Z,3.42
2022-12-12T06:13:04.334Z,3.04
2022-12-12T06:15:30.978Z,2.68
2022-12-12T06:17:58.695Z,2.41
2022-12-12T06:20:25.507Z,2.19
2022-12-12T06:22:53.895Z,1.97
2022-12-12T06:25:21.082Z,1.75
2022-12-12T06:27:47.796Z,1.63
2022-12-12T06:30:14.716Z,1.50
2022-12-12T06:32:41.422Z,1.38
2022-12-12T06:35:08.768Z,1.27
2022-12-12T06:37:35.965Z,1.20
2022-12-12T06:40:02.669Z,1.15
2022-12-12T06:42:29.326Z,1.05
2022-12-12T06:44:55.909Z,0.97
2022-12-12T06:47:22.514Z,0.90
2022-12-12T06:49:49.115Z,0.84
2022-12-12T06:52:15.716Z,0.76
2022-12-12T06:54:42.278Z,0.69
2022-12-12T06:57:08.982Z,0.65
2022-12-12T06:59:35.538Z,0.62
2022-12-12T07:02:02.215Z,0.57
2022-12-12T07:04:29.359Z,0.54
2022-12-12T07:06:56.120Z,0.51
2022-12-12T07:09:22.697Z,0.50
2022-12-12T07:11:49.360Z,0.49
2022-12-12T07:14:15.986Z,0.49
2022-12-12T07:16:42.580Z,0.48
2022-12-12T07:19:09.656Z,0.45
2022-12-12T07:21:36.538Z,0.44
2022-12-12T07:24:03.218Z,0.44
2022-12-12T07:26:29.929Z,0.45
2022-12-12T07:28:56.595Z,0.46
2022-12-12T07:31:26.507Z,0.47
2022-12-12T07:33:54.589Z,0.46
2022-12-12T07:36:21.266Z,0.48
2022-12-12T07:38:47.980Z,0.47
2022-12-12T07:41:17.182Z,0.48
2022-12-12T07:43:45.777Z,0.48
2022-12-12T07:46:18.565Z,0.49
2022-12-12T07:48:45.179Z,0.51
2022-12-12T07:51:12.904Z,0.52
2022-12-12T07:53:39.602Z,0.56
2022-12-12T07:56:07.754Z,0.61
2022-12-12T07:58:35.625Z,0.64
2022-12-12T08:01:13.932Z,0.68
2022-12-12T08:03:42.177Z,0.74
2022-12-12T08:06:08.867Z,0.79
2022-12-12T08:08:35.706Z,0.83
2022-12-12T08:11:11.166Z,0.87
2022-12-12T08:13:39.295Z,0.92
2022-12-12T08:16:08.216Z,0.95
2022-12-12T08:18:34.833Z,0.97
2022-12-12T08:21:01.638Z,0.99
2022-12-12T08:23:28.482Z,1.03
2022-12-12T08:25:55.073Z,1.08
2022-12-12T08:28:21.739Z,1.12
2022-12-12T08:30:50.032Z,1.17
2022-12-12T08:33:16.700Z,1.17
2022-12-12T08:35:43.290Z,1.19
2022-12-12T08:38:09.852Z,1.21
2022-12-12T08:40:36.451Z,1.19
2022-12-12T08:43:03.007Z,1.23
2022-12-12T08:45:29.579Z,1.29
2022-12-12T08:47:56.240Z,1.32
2022-12-12T08:50:22.806Z,1.34
2022-12-12T08:52:49.306Z,1.40
2022-12-12T08:55:16.024Z,1.42
2022-12-12T08:57:42.805Z,1.46
2022-12-12T09:00:10.693Z,1.49
2022-12-12T09:02:37.464Z,1.51
2022-12-12T09:05:04.332Z,1.56
2022-12-12T09:07:30.893Z,1.62
2022-12-12T09:09:57.617Z,1.68
2022-12-12T09:12:24.228Z,1.73
2022-12-12T09:14:50.783Z,1.75
2022-12-12T09:17:17.334Z,1.73
2022-12-12T09:19:43.947Z,1.73
2022-12-12T09:22:10.621Z,1.69
2022-12-12T09:24:37.289Z,1.69
2022-12-12T09:27:04.498Z,1.72
2022-12-12T09:29:31.198Z,1.71
2022-12-12T09:31:58.344Z,1.64
2022-12-12T09:34:25.153Z,1.65
2022-12-12T09:36:51.728Z,1.65
2022-12-12T09:39:19.688Z,1.67
2022-12-12T09:41:46.275Z,1.65
2022-12-12T09:44:18.782Z,1.66
2022-12-12T09:46:55.586Z,1.64
2022-12-12T09:49:22.099Z,1.68
2022-12-12T09:51:50.797Z,1.74
2022-12-12T09:54:21.210Z,1.79
2022-12-12T09:56:55.587Z,1.84
2022-12-12T09:59:31.258Z,1.89
2022-12-12T10:02:21.519Z,1.92
2022-12-12T10:05:15.739Z,1.91
2022-12-12T10:08:17.805Z,1.90
2022-12-12T10:10:48.086Z,1.93
2022-12-12T10:13:19.345Z,1.93
2022-12-12T10:15:49.357Z,1.92
2022-12-12T10:18:26.965Z,1.89
2022-12-12T10:20:56.796Z,1.88
2022-12-12T10:23:46.499Z,1.89
2022-12-12T10:26:27.486Z,1.89
2022-12-12T10:29:00.213Z,1.87
2022-12-12T10:31:26.880Z,1.82
2022-12-12T10:34:14.341Z,1.78
2022-12-12T10:37:03.679Z,1.81
2022-12-12T10:39:30.199Z,1.84
2022-12-12T10:42:21.385Z,1.75
2022-12-12T10:45:12.513Z,1.71
2022-12-12T10:47:39.239Z,1.71
2022-12-12T10:50:13.414Z,1.74
2022-12-12T10:52:40.342Z,1.79
2022-12-12T10:55:20.106Z,1.81
2022-12-12T10:57:46.690Z,1.88
2022-12-12T11:00:25.408Z,1.94
2022-12-12T11:02:56.771Z,1.97
2022-12-12T11:05:34.560Z,2.05
2022-12-12T11:08:21.021Z,2.07
2022-12-12T11:10:59.439Z,2.00
2022-12-12T11:13:26.175Z,2.03
2022-12-12T11:15:57.664Z,1.99
2022-12-12T11:18:25.463Z,1.98
2022-12-12T11:21:14.084Z,1.97
2022-12-12T11:23:51.939Z,1.98
2022-12-12T11:26:20.478Z,1.99
2022-12-12T11:28:55.602Z,2.01
2022-12-12T11:31:25.955Z,2.09
2022-12-12T11:33:57.523Z,2.13
2022-12-12T11:36:31.974Z,2.16
2022-12-12T11:39:01.724Z,2.22
2022-12-12T11:41:28.799Z,2.21
2022-12-12T11:44:00.196Z,2.11
2022-12-12T11:46:32.125Z,2.01
2022-12-12T11:48:59.992Z,1.96
2022-12-12T11:51:43.362Z,2.02
2022-12-12T11:54:14.632Z,2.08
2022-12-12T11:56:44.155Z,2.18
2022-12-12T11:59:22.752Z,2.23
2022-12-12T12:02:00.287Z,2.28
2022-12-12T12:04:51.276Z,2.28
2022-12-12T12:07:19.564Z,2.38
2022-12-12T12:09:57.044Z,2.43
2022-12-12T12:13:02.303Z,2.48
2022-12-12T12:15:35.940Z,2.54
2022-12-12T12:18:28.276Z,2.56
2022-12-12T12:21:16.826Z,2.63
2022-12-12T12:23:52.241Z,2.65
2022-12-12T12:27:06.881Z,2.67
2022-12-12T12:29:42.835Z,2.71
2022-12-12T12:32:26.323Z,2.67
2022-12-12T12:35:14.351Z,2.68
2022-12-12T12:38:13.410Z,2.60
2022-12-12T12:40:49.966Z,2.54
2022-12-12T12:43:28.911Z,2.49
2022-12-12T12:46:12.761Z,2.44
2022-12-12T12:48:43.705Z,2.48
2022-12-12T12:51:35.230Z,2.44
2022-12-12T12:54:18.240Z,2.36
2022-12-12T12:56:58.781Z,2.32
2022-12-12T12:59:32.552Z,2.30
2022-12-12T13:02:12.111Z,2.24
2022-12-12T13:04:57.371Z,2.17
2022-12-12T13:07:29.061Z,2.22
2022-12-12T13:10:08.638Z,2.21
2022-12-12T13:12:40.116Z,2.22
2022-12-12T13:15:22.418Z,2.20
2022-12-12T13:18:09.289Z,2.23
2022-12-12T13:20:42.340Z,2.29
2022-12-12T13:23:47.195Z,2.30
2022-12-12T13:26:38.605Z,2.33
2022-12-12T13:29:41.517Z,2.25
2022-12-12T13:32:17.131Z,2.22
2022-12-12T13:34:50.804Z,2.14
2022-12-12T13:37:20.626Z,2.07
2022-12-12T13:40:01.020Z,2.00
2022-12-12T13:42:51.910Z,1.91
2022-12-12T13:45:43.634Z,1.78
2022-12-12T13:48:46.990Z,1.65
2022-12-12T13:51:32.054Z,1.61
2022-12-12T13:54:12.821Z,1.59
2022-12-12T13:56:52.716Z,1.56
2022-12-12T13:59:22.246Z,1.57
2022-12-12T14:02:00.098Z,1.56
2022-12-12T14:04:30.951Z,1.56
2022-12-12T14:06:59.128Z,1.53
2022-12-12T14:09:47.279Z,1.51
2022-12-12T14:12:20.396Z,1.44
2022-12-12T14:14:57.406Z,1.40
2022-12-12T14:17:27.975Z,1.40
2022-12-12T14:19:58.601Z,1.39
2022-12-12T14:22:40.347Z,1.36
2022-12-12T14:25:33.879Z,1.32
2022-12-12T14:28:18.876Z,1.34
2022-12-12T14:30:56.009Z,1.30
2022-12-12T14:33:47.457Z,1.30
2022-12-12T14:36:25.356Z,1.27
2022-12-12T14:39:01.980Z,1.27
2022-12-12T14:41:34.620Z,1.27
2022-12-12T14:44:35.202Z,1.27
2022-12-12T14:46:52.070Z,1.27
2022-12-12T14:49:19.298Z,1.28
2022-12-12T14:51:50.745Z,1.26
2022-12-12T14:54:22.728Z,1.25
2022-12-12T14:57:01.429Z,1.23
2022-12-12T14:59:32.856Z,1.19
2022-12-12T15:02:05.946Z,1.17
2022-12-12T15:04:38.903Z,1.15
2022-12-12T15:07:21.487Z,1.14
2022-12-12T15:09:49.308Z,1.10
2022-12-12T15:12:22.067Z,1.04
2022-12-12T15:14:48.590Z,1.00
2022-12-12T15:17:26.794Z,0.96
2022-12-12T15:19:57.651Z,0.96
2022-12-12T15:22:30.787Z,0.95
2022-12-12T15:25:00.465Z,0.91
2022-12-12T15:27:46.146Z,0.85
2022-12-12T15:30:16.762Z,0.79
2022-12-12T15:32:46.981Z,0.73
2022-12-12T15:35:20.913Z,0.67
2022-12-12T15:37:58.941Z,0.59
2022-12-12T15:40:35.845Z,0.53
2022-12-12T15:43:06.596Z,0.45
2022-12-12T15:45:40.453Z,0.39
2022-12-12T15:48:13.606Z,0.33
2022-12-12T15:50:40.132Z,0.29
2022-12-12T15:53:19.164Z,0.26
2022-12-12T15:56:01.941Z,0.20
2022-12-12T15:58:35.120Z,0.16
2022-12-12T16:01:21.418Z,0.07
2022-12-12T16:04:10.210Z,-0.02
2022-12-12T16:06:36.951Z,-0.04
2022-12-12T16:09:17.875Z,-0.14
2022-12-12T16:11:47.419Z,-0.17
2022-12-12T16:14:40.836Z,-0.23
2022-12-12T16:17:18.272Z,-0.29
2022-12-12T16:20:10.718Z,-0.35
2022-12-12T16:22:47.787Z,-0.38
2022-12-12T16:25:32.521Z,-0.39
2022-12-12T16:28:08.468Z,-0.44
2022-12-12T16:30:36.809Z,-0.47
2022-12-12T16:33:23.089Z,-0.50
2022-12-12T16:35:49.855Z,-0.48
2022-12-12T16:38:17.809Z,-0.48
2022-12-12T16:40:48.354Z,-0.48
2022-12-12T16:43:17.643Z,-0.51
2022-12-12T16:45:44.426Z,-0.51
2022-12-12T16:48:18.489Z,-0.52
2022-12-12T16:50:46.011Z,-0.51
2022-12-12T16:53:12.765Z,-0.50
2022-12-12T16:55:45.648Z,-0.51
2022-12-12T16:58:12.657Z,-0.50
2022-12-12T17:00:40.044Z,-0.52
2022-12-12T17:03:07.077Z,-0.53
2022-12-12T17:05:35.261Z,-0.56
2022-12-12T17:08:03.121Z,-0.60
2022-12-12T17:10:31.616Z,-0.62
2022-12-12T17:12:58.188Z,-0.64
2022-12-12T17:15:29.955Z,-0.67
2022-12-12T17:17:56.988Z,-0.74
2022-12-12T17:20:24.680Z,-0.71
2022-12-12T17:22:52.155Z,-0.70
2022-12-12T17:25:19.755Z,-0.70
2022-12-12T17:27:46.331Z,-0.72
2022-12-12T17:30:14.026Z,-0.71
2022-12-12T17:32:41.164Z,-0.75
2022-12-12T17:35:08.896Z,-0.77
2022-12-12T17:37:35.926Z,-0.81
2022-12-12T17:40:04.712Z,-0.86
2022-12-12T17:42:32.056Z,-0.88
2022-12-12T17:44:59.310Z,-0.89
2022-12-12T17:47:26.478Z,-0.92
2022-12-12T17:49:53.080Z,-0.95
2022-12-12T17:52:19.663Z,-0.98
2022-12-12T17:55:54.014Z,-1.01
2022-12-12T17:57:34.488Z,-1.05
2022-12-12T18:00:01.064Z,-1.06
2022-12-12T18:02:27.670Z,-1.10
2022-12-12T18:04:54.296Z,-1.15
2022-12-12T18:07:20.913Z,-1.19
2022-12-12T18:09:47.461Z,-1.20
2022-12-12T18:12:14.264Z,-1.23
2022-12-12T18:14:40.871Z,-1.24
2022-12-12T18:17:07.592Z,-1.27
2022-12-12T18:19:34.270Z,-1.30
2022-12-12T18:22:02.054Z,-1.31
2022-12-12T18:24:29.953Z,-1.35
2022-12-12T18:26:59.105Z,-1.40
2022-12-12T18:29:26.642Z,-1.42
2022-12-12T18:31:53.712Z,-1.47
2022-12-12T18:34:20.762Z,-1.51
2022-12-12T18:36:47.515Z,-1.52
2022-12-12T18:39:14.253Z,-1.52
2022-12-12T18:41:40.939Z,-1.55
2022-12-12T18:44:11.289Z,-1.58
2022-12-12T18:46:42.773Z,-1.60
2022-12-12T18:49:15.671Z,-1.61
2022-12-12T18:51:42.947Z,-1.62
2022-12-12T18:54:15.438Z,-1.64
2022-12-12T18:56:43.626Z,-1.66
2022-12-12T18:59:10.253Z,-1.68
2022-12-12T19:01:37.399Z,-1.70
2022-12-12T19:04:11.773Z,-1.73
2022-12-12T19:06:41.660Z,-1.74
2022-12-12T19:09:14.717Z,-1.75
2022-12-12T19:11:41.565Z,-1.78
2022-12-12T19:14:09.652Z,-1.77
2022-12-12T19:16:36.701Z,-1.75
2022-12-12T19:19:09.349Z,-1.75
2022-12-12T19:21:36.651Z,-1.73
2022-12-12T19:24:04.808Z,-1.70
2022-12-12T19:26:31.387Z,-1.71
2022-12-12T19:29:04.629Z,-1.72
2022-12-12T19:31:36.094Z,-1.74
2022-12-12T19:34:05.001Z,-1.76
2022-12-12T19:36:31.931Z,-1.74
2022-12-12T19:39:00.774Z,-1.74
2022-12-12T19:41:28.404Z,-1.73
2022-12-12T19:43:57.298Z,-1.74
2022-12-12T19:46:26.992Z,-1.75
2022-12-12T19:49:01.285Z,-1.78
2022-12-12T19:51:32.516Z,-1.77
2022-12-12T19:54:00.248Z,-1.79
2022-12-12T19:56:29.637Z,-1.77
2022-12-12T19:58:57.465Z,-1.78
2022-12-12T20:01:28.423Z,-1.74
2022-12-12T20:04:02.994Z,-1.73
2022-12-12T20:06:29.932Z,-1.70
2022-12-12T20:09:00.043Z,-1.73
2022-12-12T20:11:27.306Z,-1.73
2022-12-12T20:13:56.814Z,-1.71
2022-12-12T20:16:25.787Z,-1.72
2022-12-12T20:18:53.130Z,-1.72
2022-12-12T20:21:51.681Z,-1.71
2022-12-12T20:24:10.571Z,-1.72
2022-12-12T20:26:39.414Z,-1.73
2022-12-12T20:29:06.737Z,-1.73
2022-12-12T20:31:36.028Z,-1.74
2022-12-12T20:34:02.760Z,-1.78
2022-12-12T20:36:32.661Z,-1.79
2022-12-12T20:39:01.548Z,-1.79
2022-12-12T20:41:31.275Z,-1.78
2022-12-12T20:43:59.625Z,-1.79
2022-12-12T20:46:31.963Z,-1.78
2022-12-12T20:48:59.976Z,-1.80
2022-12-12T20:51:54.792Z,-1.79
2022-12-12T20:54:19.948Z,-1.80
2022-12-12T20:56:46.786Z,-1.82
2022-12-12T20:59:14.560Z,-1.84
2022-12-12T21:01:41.552Z,-1.84
2022-12-12T21:04:09.471Z,-1.86
2022-12-12T21:06:39.515Z,-1.88
2022-12-12T21:09:09.638Z,-1.88
2022-12-12T21:11:37.620Z,-1.89
2022-12-12T21:14:04.387Z,-1.92
2022-12-12T21:16:33.747Z,-1.92
2022-12-12T21:19:02.696Z,-1.91
2022-12-12T21:21:30.194Z,-1.92
2022-12-12T21:23:57.036Z,-1.93
2022-12-12T21:26:29.153Z,-1.93
2022-12-12T21:28:56.872Z,-1.95
2022-12-12T21:31:26.404Z,-1.96
2022-12-12T21:33:53.068Z,-1.95
2022-12-12T21:36:21.980Z,-1.96
2022-12-12T21:38:49.603Z,-1.97
2022-12-12T21:41:18.567Z,-1.96
2022-12-12T21:43:45.490Z,-1.98
2022-12-12T21:46:17.690Z,-1.99
2022-12-12T21:48:44.290Z,-1.99
2022-12-12T21:51:16.462Z,-2.02
2022-12-12T21:53:43.098Z,-2.01
2022-12-12T21:56:17.632Z,-2.01
2022-12-12T21:58:47.305Z,-2.03
2022-12-12T22:01:19.856Z,-2.04
2022-12-12T22:03:48.540Z,-2.03
2022-12-12T22:06:27.179Z,-2.05
2022-12-12T22:08:58.778Z,-2.04
2022-12-12T22:11:41.084Z,-2.07
2022-12-12T22:14:12.227Z,-2.08
2022-12-12T22:16:39.298Z,-2.10
2022-12-12T22:19:10.916Z,-2.14
2022-12-12T22:21:37.979Z,-2.18
2022-12-12T22:24:05.371Z,-2.20
2022-12-12T22:26:41.135Z,-2.21
2022-12-12T22:29:11.244Z,-2.21
2022-12-12T22:31:39.419Z,-2.19
2022-12-12T22:34:10.536Z,-2.19
2022-12-12T22:36:38.722Z,-2.21
2022-12-12T22:39:07.830Z,-2.22
2022-12-12T22:41:34.640Z,-2.21
2022-12-12T22:44:03.937Z,-2.20
2022-12-12T22:46:31.234Z,-2.21
2022-12-12T22:49:00.497Z,-2.21
2022-12-12T22:51:30.696Z,-2.24
2022-12-12T22:53:59.646Z,-2.25
2022-12-12T22:56:28.334Z,-2.25
2022-12-12T22:58:55.247Z,-2.25
2022-12-12T23:01:23.140Z,-2.25
2022-12-12T23:03:49.915Z,-2.27
2022-12-12T23:06:20.001Z,-2.29
2022-12-12T23:08:55.745Z,-2.33
2022-12-12T23:11:24.254Z,-2.34
2022-12-12T23:13:53.517Z,-2.37
2022-12-12T23:16:24.056Z,-2.37
2022-12-12T23:18:51.334Z,-2.39
2022-12-12T23:21:21.772Z,-2.42
2022-12-12T23:23:49.288Z,-2.44
2022-12-12T23:26:22.448Z,-2.44
2022-12-12T23:28:49.752Z,-2.43
2022-12-12T23:31:22.016Z,-2.44
2022-12-12T23:33:53.735Z,-2.44
2022-12-12T23:36:20.995Z,-2.48
2022-12-12T23:38:47.736Z,-2.49
2022-12-12T23:41:16.079Z,-2.50
2022-12-12T23:43:43.214Z,-2.51
2022-12-12T23:46:28.185Z,-2.50
2022-12-12T23:49:05.944Z,-2.52
2022-12-12T23:51:37.938Z,-2.52
2022-12-12T23:54:07.204Z,-2.55
2022-12-12T23:56:33.858Z,-2.56
2022-12-12T23:59:01.055Z,-2.59
